createdAt,value
2023-01-18T00:03:20.247Z,1.92
2023-01-18T00:07:23.091Z,1.84
2023-01-18T00:11:26.075Z,1.79
2023-01-18T00:15:28.978Z,1.78
2023-01-18T00:19:33.731Z,1.83
2023-01-18T00:23:36.880Z,1.88
2023-01-18T00:27:44.297Z,1.97
2023-01-18T00:31:47.314Z,2.02
2023-01-18T00:36:01.590Z,1.97
2023-01-18T00:54:49.665Z,2.18
2023-01-18T00:58:54.057Z,2.33
2023-01-18T01:02:59.470Z,2.41
2023-01-18T01:07:05.263Z,2.43
2023-01-18T01:11:13.950Z,2.37
2023-01-18T01:15:35.395Z,2.39
2023-01-18T01:19:56.554Z,2.45
2023-01-18T01:24:18.134Z,2.53
2023-01-18T01:28:20.844Z,2.60
2023-01-18T01:32:23.650Z,2.69
2023-01-18T01:36:57.830Z,2.74
2023-01-18T01:41:07.336Z,2.65
2023-01-18T01:46:03.112Z,2.56
2023-01-18T01:50:38.573Z,2.46
2023-01-18T01:55:02.145Z,2.12
2023-01-18T01:59:07.410Z,2.04
2023-01-18T02:03:12.882Z,2.08
2023-01-18T02:07:42.957Z,2.12
2023-01-18T02:11:45.697Z,2.18
2023-01-18T02:15:54.731Z,2.18
2023-01-18T02:26:08.229Z,1.89
2023-01-18T02:30:43.977Z,1.83
2023-01-18T02:34:54.437Z,1.82
2023-01-18T02:39:06.948Z,1.84
2023-01-18T02:43:32.668Z,1.87
2023-01-18T02:47:36.616Z,1.91
2023-01-18T02:52:01.899Z,1.93
2023-01-18T02:56:28.349Z,1.90
2023-01-18T03:00:34.419Z,1.99
2023-01-18T03:04:45.609Z,2.17
2023-01-18T03:08:54.592Z,2.30
2023-01-18T03:13:06.489Z,2.36
2023-01-18T03:17:29.615Z,2.37
2023-01-18T03:21:49.411Z,2.43
2023-01-18T03:25:57.035Z,2.54
2023-01-18T03:30:24.926Z,2.57
2023-01-18T03:35:08.167Z,2.59
2023-01-18T03:39:20.855Z,2.66
2023-01-18T03:43:27.275Z,2.73
2023-01-18T03:47:32.390Z,2.78
2023-01-18T03:52:11.341Z,2.77
2023-01-18T03:56:28.430Z,2.75
2023-01-18T04:00:34.427Z,2.77
2023-01-18T04:13:43.477Z,2.90
2023-01-18T04:17:49.783Z,2.98
2023-01-18T04:21:52.573Z,2.98
2023-01-18T04:25:55.545Z,2.94
2023-01-18T04:29:58.738Z,2.90
2023-01-18T04:34:01.625Z,2.93
2023-01-18T04:38:04.513Z,2.98
2023-01-18T04:42:07.413Z,3.05
2023-01-18T04:46:10.225Z,3.07
2023-01-18T04:50:13.263Z,3.08
2023-01-18T04:54:18.690Z,3.07
2023-01-18T04:58:21.410Z,2.91
2023-01-18T05:02:24.381Z,2.84
2023-01-18T05:06:27.453Z,2.89
2023-01-18T05:10:30.640Z,2.91
2023-01-18T05:14:33.720Z,2.92
2023-01-18T05:18:36.622Z,2.96
2023-01-18T05:22:39.488Z,3.00
2023-01-18T05:26:42.228Z,3.04
2023-01-18T05:30:45.110Z,3.03
2023-01-18T05:34:48.109Z,2.96
2023-01-18T05:38:50.860Z,2.90
2023-01-18T05:42:53.959Z,2.84
2023-01-18T05:46:56.949Z,2.84
2023-01-18T05:50:59.749Z,2.89
2023-01-18T05:55:02.760Z,2.91
2023-01-18T05:59:06.026Z,2.93
2023-01-18T06:03:10.734Z,2.95
2023-01-18T06:07:15.139Z,2.97
2023-01-18T06:11:17.917Z,3.01
2023-01-18T06:15:20.854Z,3.06
2023-01-18T06:19:23.696Z,3.13
2023-01-18T06:23:27.705Z,3.14
2023-01-18T06:27:30.511Z,3.12
2023-01-18T06:45:52.428Z,3.40
2023-01-18T06:59:09.129Z,3.44
2023-01-18T07:03:12.115Z,3.44
2023-01-18T07:07:16.294Z,3.43
2023-01-18T07:11:19.409Z,3.43
2023-01-18T07:15:23.065Z,3.51
2023-01-18T07:19:26.202Z,3.57
2023-01-18T07:23:30.490Z,3.53
2023-01-18T07:27:33.478Z,3.31
2023-01-18T07:31:38.294Z,3.18
2023-01-18T07:35:41.178Z,3.16
2023-01-18T07:39:44.130Z,3.10
2023-01-18T07:43:47.348Z,2.91
2023-01-18T07:47:50.194Z,2.73
2023-01-18T07:51:53.224Z,2.66
2023-01-18T07:56:02.472Z,2.66
2023-01-18T08:00:07.322Z,2.68
2023-01-18T08:04:10.211Z,2.64
2023-01-18T08:08:16.394Z,2.62
2023-01-18T08:12:19.415Z,2.62
2023-01-18T08:16:22.485Z,2.58
2023-01-18T08:20:25.465Z,2.53
2023-01-18T08:24:31.415Z,2.56
2023-01-18T08:28:35.031Z,2.58
2023-01-18T08:32:38.028Z,2.66
2023-01-18T08:36:41.041Z,2.80
2023-01-18T08:40:44.023Z,2.95
2023-01-18T08:44:48.543Z,3.03
2023-01-18T08:48:53.538Z,3.07
2023-01-18T08:52:57.356Z,3.02
2023-01-18T08:57:02.287Z,2.91
2023-01-18T09:01:07.170Z,2.84
2023-01-18T09:05:10.492Z,2.72
2023-01-18T09:09:13.421Z,2.72
2023-01-18T09:13:16.255Z,2.73
2023-01-18T09:17:21.319Z,2.79
2023-01-18T09:21:24.399Z,2.89
2023-01-18T09:25:27.325Z,2.98
2023-01-18T09:29:31.593Z,3.03
2023-01-18T09:33:37.788Z,3.09
2023-01-18T09:37:41.124Z,3.13
2023-01-18T09:41:49.723Z,3.21
2023-01-18T09:45:53.618Z,3.31
2023-01-18T09:50:02.455Z,3.35
2023-01-18T09:54:11.702Z,3.41
2023-01-18T09:58:31.949Z,3.42
2023-01-18T10:02:39.451Z,3.47
2023-01-18T10:07:00.741Z,3.51
2023-01-18T10:11:12.494Z,3.55
2023-01-18T10:15:26.705Z,3.63
2023-01-18T10:19:32.021Z,3.66
2023-01-18T10:23:44.413Z,3.66
2023-01-18T10:28:04.122Z,3.65
2023-01-18T10:32:15.179Z,3.63
2023-01-18T10:36:20.806Z,3.65
2023-01-18T10:40:23.556Z,3.69
2023-01-18T10:44:26.451Z,3.71
2023-01-18T10:48:31.017Z,3.74
2023-01-18T10:52:34.138Z,3.78
2023-01-18T10:56:37.628Z,3.80
2023-01-18T11:00:40.879Z,3.83
2023-01-18T11:04:43.906Z,3.89
2023-01-18T11:08:48.749Z,3.95
2023-01-18T11:12:53.246Z,3.99
2023-01-18T11:17:10.982Z,4.04
2023-01-18T11:21:15.494Z,4.13
2023-01-18T11:25:18.456Z,4.18
2023-01-18T11:29:26.543Z,4.24
2023-01-18T11:33:31.420Z,4.33
2023-01-18T11:37:36.904Z,4.42
2023-01-18T11:41:39.953Z,4.50
2023-01-18T11:45:59.710Z,4.63
2023-01-18T11:50:21.981Z,4.68
2023-01-18T11:54:46.919Z,4.65
2023-01-18T11:58:49.982Z,4.62
2023-01-18T12:03:06.097Z,4.67
2023-01-18T12:07:21.642Z,4.74
2023-01-18T12:11:33.792Z,4.76
2023-01-18T12:15:53.529Z,4.81
2023-01-18T12:20:21.062Z,4.86
2023-01-18T12:24:53.609Z,4.91
2023-01-18T12:29:10.443Z,4.86
2023-01-18T12:33:43.878Z,4.85
2023-01-18T12:38:09.321Z,4.90
2023-01-18T12:42:40.475Z,4.89
2023-01-18T12:46:46.694Z,4.91
2023-01-18T12:50:51.150Z,4.90
2023-01-18T12:54:57.468Z,4.85
2023-01-18T12:59:08.357Z,4.86
2023-01-18T13:03:16.481Z,4.87
2023-01-18T13:07:25.606Z,4.79
2023-01-18T13:11:37.835Z,4.73
2023-01-18T13:15:49.463Z,4.71
2023-01-18T13:20:13.892Z,4.78
2023-01-18T13:24:42.987Z,4.83
2023-01-18T13:28:46.428Z,4.81
2023-01-18T13:32:49.629Z,4.74
2023-01-18T13:37:02.463Z,4.64
2023-01-18T13:41:23.332Z,4.56
2023-01-18T13:45:29.895Z,4.53
2023-01-18T13:49:38.609Z,4.49
2023-01-18T13:58:28.917Z,4.26
2023-01-18T14:02:43.354Z,4.20
2023-01-18T14:06:48.250Z,4.18
2023-01-18T14:11:04.534Z,4.26
2023-01-18T14:15:46.566Z,4.32
2023-01-18T14:19:49.571Z,4.39
2023-01-18T14:24:40.342Z,4.46
2023-01-18T14:28:49.492Z,4.53
2023-01-18T14:33:24.075Z,4.56
2023-01-18T14:37:35.643Z,4.64
2023-01-18T14:41:43.372Z,4.74
2023-01-18T14:45:54.037Z,4.80
2023-01-18T14:49:56.928Z,4.83
2023-01-18T14:54:02.913Z,4.85
2023-01-18T14:58:16.199Z,4.86
2023-01-18T15:02:24.821Z,4.87
2023-01-18T15:06:44.583Z,4.91
2023-01-18T15:10:48.518Z,4.97
2023-01-18T15:14:51.473Z,5.05
2023-01-18T15:19:03.094Z,5.13
2023-01-18T15:23:06.135Z,5.11
2023-01-18T15:27:15.553Z,5.04
2023-01-18T15:31:18.332Z,5.04
2023-01-18T15:35:25.618Z,5.06
2023-01-18T15:39:28.905Z,5.07
2023-01-18T15:43:33.589Z,5.07
2023-01-18T15:47:39.987Z,5.10
2023-01-18T15:51:52.701Z,5.07
2023-01-18T15:56:48.444Z,5.04
2023-01-18T16:01:17.148Z,4.96
2023-01-18T16:05:23.402Z,4.90
2023-01-18T16:09:26.597Z,4.83
2023-01-18T16:13:38.408Z,4.77
2023-01-18T16:17:43.873Z,4.80
2023-01-18T16:21:51.384Z,4.84
2023-01-18T16:26:03.686Z,4.89
2023-01-18T16:30:20.099Z,4.88
2023-01-18T16:34:25.707Z,4.82
2023-01-18T16:38:28.613Z,4.77
2023-01-18T16:42:38.416Z,4.67
2023-01-18T16:46:41.496Z,4.57
2023-01-18T16:50:45.208Z,4.49
2023-01-18T16:54:48.013Z,4.46
2023-01-18T16:58:55.087Z,4.51
2023-01-18T17:02:57.932Z,4.53
2023-01-18T17:07:01.042Z,4.47
2023-01-18T17:11:04.428Z,4.32
2023-01-18T17:15:07.757Z,4.19
2023-01-18T17:19:15.000Z,4.19
2023-01-18T17:23:22.943Z,3.99
2023-01-18T17:27:25.738Z,3.65
2023-01-18T17:31:28.913Z,3.47
2023-01-18T17:35:32.142Z,3.32
2023-01-18T17:39:43.333Z,3.29
2023-01-18T17:43:53.741Z,3.35
2023-01-18T17:47:56.572Z,3.45
2023-01-18T17:51:59.341Z,3.61
2023-01-18T17:56:09.503Z,3.80
2023-01-18T18:00:14.249Z,3.98
2023-01-18T18:04:33.375Z,4.11
2023-01-18T18:08:37.030Z,4.20
2023-01-18T18:12:39.829Z,4.17
2023-01-18T18:16:44.604Z,4.18
2023-01-18T18:20:47.494Z,4.14
2023-01-18T18:24:51.891Z,4.06
2023-01-18T18:28:54.670Z,3.97
2023-01-18T18:32:58.098Z,3.96
2023-01-18T18:37:01.784Z,3.93
2023-01-18T18:41:07.387Z,4.00
2023-01-18T18:45:10.603Z,4.11
2023-01-18T18:49:15.876Z,4.18
2023-01-18T18:53:21.437Z,4.15
2023-01-18T18:57:28.999Z,4.11
2023-01-18T19:01:32.124Z,4.10
2023-01-18T19:05:35.974Z,4.08
2023-01-18T19:09:39.097Z,4.02
2023-01-18T19:13:43.104Z,3.96
2023-01-18T19:17:50.419Z,3.95
2023-01-18T19:21:53.248Z,3.92
2023-01-18T19:26:11.805Z,3.91
2023-01-18T19:30:18.169Z,3.94
2023-01-18T19:34:21.984Z,3.99
2023-01-18T19:38:25.191Z,3.98
2023-01-18T19:42:29.231Z,3.99
2023-01-18T19:46:34.149Z,4.00
2023-01-18T19:50:37.283Z,4.00
2023-01-18T19:54:41.254Z,4.00
2023-01-18T19:58:44.634Z,3.97
2023-01-18T20:02:47.461Z,3.94
2023-01-18T20:06:50.544Z,3.93
2023-01-18T20:10:53.365Z,3.91
2023-01-18T20:14:56.352Z,3.95
2023-01-18T20:18:59.140Z,3.98
2023-01-18T20:23:03.338Z,3.97
2023-01-18T20:27:15.825Z,4.02
2023-01-18T20:31:20.569Z,4.01
2023-01-18T20:35:23.531Z,3.98
2023-01-18T20:39:27.479Z,3.98
2023-01-18T20:43:30.622Z,3.98
2023-01-18T20:47:33.373Z,3.96
2023-01-18T20:51:36.250Z,3.93
2023-01-18T20:55:39.943Z,4.00
2023-01-18T20:59:42.684Z,3.98
2023-01-18T21:03:47.329Z,4.04
2023-01-18T21:07:50.230Z,4.09
2023-01-18T21:12:18.193Z,4.12
2023-01-18T21:16:22.062Z,4.18
2023-01-18T21:20:24.841Z,4.29
2023-01-18T21:24:27.595Z,4.39
2023-01-18T21:29:01.131Z,4.41
2023-01-18T21:33:03.864Z,4.32
2023-01-18T21:37:58.091Z,4.15
2023-01-18T21:42:39.847Z,4.11
2023-01-18T21:46:51.285Z,4.07
2023-01-18T21:51:15.470Z,3.94
2023-01-18T21:55:18.557Z,3.86
2023-01-18T21:59:21.360Z,3.83
2023-01-18T22:03:24.132Z,3.82
2023-01-18T22:07:30.275Z,3.84
2023-01-18T22:11:33.143Z,3.82
2023-01-18T22:15:40.424Z,3.76
2023-01-18T22:19:44.029Z,3.70
2023-01-18T22:23:46.784Z,3.70
2023-01-18T22:27:49.600Z,3.70
2023-01-18T22:31:56.055Z,3.71
2023-01-18T22:36:00.226Z,3.79
2023-01-18T22:40:03.590Z,3.87
2023-01-18T22:44:06.569Z,3.98
2023-01-18T22:48:11.474Z,4.06
2023-01-18T22:52:14.440Z,4.07
2023-01-18T22:56:19.859Z,4.04
2023-01-18T23:00:24.560Z,3.99
2023-01-18T23:04:29.491Z,3.90
2023-01-18T23:08:44.634Z,3.80
2023-01-18T23:12:47.495Z,3.80
2023-01-18T23:21:29.609Z,3.81
2023-01-18T23:25:33.604Z,3.85
2023-01-18T23:29:36.724Z,3.82
2023-01-18T23:33:39.919Z,3.71
2023-01-18T23:37:42.709Z,3.58
2023-01-18T23:42:04.187Z,3.47
2023-01-18T23:46:25.993Z,3.26
2023-01-18T23:50:47.419Z,3.08
2023-01-18T23:54:50.153Z,2.82
2023-01-18T23:58:54.826Z,2.61
